Airfield :
LOGIN :

Register | Disclaimer

   EN    FR    IT 

 










Legend :    VFR   Marginal VFR   IFR   Intensive IFR   Very Intensive IFR
Visi :
Ceiling :
>= 8 km
>= 3000ft
5 to 8 km
1000 to 3000 ft
1500m to 5 km
500 to 1000 ft
800 to 1500m
200 to 500 ft
< 800m
< 200 ft
Symbols :   Thunderstorms  Fog  Heavy snow  Heavy precipitations  Wind > 20 kt
SIGMETs :     Misc.  Thunderstorms  Icing  Turbulence  Mountain Waves  Volcanic Ashes






- Airport Elevation : 294 ft
- IATA code : NAP


LIRN - Naples Capodichino

CURRENT METAR :
  • 201420Z VRB02KT 9999 FEW020 SCT060 14/10 Q1014 NOSIG

EXPIRED METARs :
  • 201350Z 15003KT 100V220 9999 FEW020 SCT060 14/11 Q1014 NOSIG
  • 201320Z 20003KT 130V230 8000 -RA SCT020 BKN060 13/11 Q1014 NOSIG
  • 201250Z 28006KT 7000 -RA SCT020 BKN060 13/11 Q1014 NOSIG
  • 201220Z 20005KT 150V250 9999 4000SW -RA SCT020 BKN060 15/10 Q1014 NOSIG
  • 201150Z 22006KT 130V260 9999 FEW020 BKN060 16/11 Q1014 NOSIG

TAF TAF LIRN
Valid from the 20 at 12:00 until the 21 at 12:00 UTC


201100Z 2012/2112 22010KT 7000 SCT020 BKN040
TEMPO 2012/2018 SHRA
BECMG 2016/2018 VRB05KT



MET'MAP, your aeronautical weather chart ! - Copyright ORBIFLY December 2007 - Disclaimer

ORBIFLY MET'MAP TEAM :

Programming & Development : Alexandra Zaïnal
Concept & Development : Baudouin d'Aumeries
Co-Development & Prog : Marc-Olivier Méhu
Technical & hardware support : Manuel Goepfert

Contact : metmap@orbifly.com




SOURCES & CREDITS :

   NOAA